Ostmark, Sweden

1:39 PM CET on November 21, 2014 (GMT +0100)
Sormark in Varmland, Sweden | Change Station
CLOSE
Current Station
Personal Weather Station
Location: Ostmark, VARMLANDS LAN
Elevation: 354 ft
Nearby Weather Stations

Elev 354 ft 60.24 °N, 12.83 °E | Updated 2 seconds ago

Mostly Cloudy
Mostly Cloudy
35.6 °F
Feels Like 36 °F
N
1.3
Wind Variable Wind from NW
Gusts 2.5 mph

Today
High -- | Low -- °F
--% Chance of Precip.
Yesterday
High -- | Low -- °F
Precip. -- in
8:24 AM 3:25 PM
Waning Crescent, 1% visible
Pressure 30.27 in
Visibility 6.2 miles
Clouds Scattered Clouds 2000 ft
Mostly Cloudy 4500 ft
Windchill 36 °F
Dew Point 34 °F
Humidity 92%
Rainfall 0.02 in
Snow Depth Not available.
UV 0 out of 12
Pollen Not available.
Air Quality Not available.
Flu Activity Not available.
METAR ENOA 211220Z 09005KT 050V130 9999 SCT020 BKN045 08/03 Q1025 W///S3

More Conditions Fewer Conditions

Pressure 30.27 in
Visibility 6.2 miles
Clouds Scattered Clouds 2000 ft
Mostly Cloudy 4500 ft
Windchill 36 °F
Dew Point 34 °F
Humidity 92%
Rainfall 0.02 in
Snow Depth Not available.
UV 0 out of 12
Pollen Not available.
Air Quality Not available.
Flu Activity Not available.
METAR ENOA 211220Z 09005KT 050V130 9999 SCT020 BKN045 08/03 Q1025 W///S3

More Conditions Fewer Conditions

10-Day Weather Forecast

Almanac

Astronomy

Nov. 21, 2014 Rise Set
Actual Time
Civil Twilight
Nautical Twilight
Astronomical Twilight
Moon
Length of Visible Light
Length of Day
Tomorrow will be .
, % of the Moon is Illuminated

Today's Extremes

Country Highs Country Lows

Community

WunderPhotos

Upload Photos

1,772,654 photos uploaded!

WunderBlogs® & News

Nearby

Air Quality

  Air Quality AQ Index Pollutant
Not available.

Snow Depth

Station Depth Elevation

Earthquake Activity

City Distance Mag. Time & Date
Minimum magnitude displayed is 2.5.

Coastal Water Temperatures

Place Temperature

Nearby Weather Stations